Time;durP1;ratioP1;P1;durP2;ratioP2;P2;SDS_P1;SDS_P2;PMS_P1;PMS_P2;Temp;Humidity;BMP_temperature;BMP_pressure;BME280_temperature;BME280_humidity;BME280_pressure;Samples;Min_cycle;Max_cycle;Signal;HPM_P1;HPM_P2
2022/04/07 00:01:10;;;;;;;11.05;4.32;;;;;;;;;;4917541;29;20056;-64
2022/04/07 00:03:36;;;;;;;7.40;3.72;;;;;;;;;;4916796;29;20044;-64
2022/04/07 00:06:09;;;;;;;11.45;3.80;;;;;;;;;;4917866;29;20126;-64
2022/04/07 00:08:35;;;;;;;12.45;4.55;;;;;;;;;;4917824;29;20044;-63
2022/04/07 00:11:01;;;;;;;11.68;4.70;;;;;;;;;;4917390;29;20079;-63
2022/04/07 00:13:27;;;;;;;15.35;5.35;;;;;;;;;;4917955;29;20123;-64
2022/04/07 00:15:56;;;;;;;13.13;6.47;;;;;;;;;;4917717;29;20518;-64
2022/04/07 00:18:22;;;;;;;12.10;4.80;;;;;;;;;;4917036;29;20131;-64
2022/04/07 00:20:48;;;;;;;12.75;5.15;;;;;;;;;;4917609;29;20039;-64
2022/04/07 00:23:14;;;;;;;16.73;5.03;;;;;;;;;;4917610;29;20048;-64
2022/04/07 00:25:40;;;;;;;11.82;5.15;;;;;;;;;;4920971;29;20043;-64
2022/04/07 00:28:06;;;;;;;10.23;5.30;;;;;;;;;;4936179;29;20062;-63
2022/04/07 00:30:32;;;;;;;11.63;5.07;;;;;;;;;;4936509;29;20635;-63
2022/04/07 00:32:58;;;;;;;12.30;5.10;;;;;;;;;;4935532;29;20043;-63
2022/04/07 00:35:26;;;;;;;13.70;5.38;;;;;;;;;;4936231;29;20039;-63
2022/04/07 00:37:52;;;;;;;16.13;4.88;;;;;;;;;;4936271;29;20408;-63
2022/04/07 00:40:18;;;;;;;7.55;3.80;;;;;;;;;;4935583;29;20656;-64
2022/04/07 00:42:45;;;;;;;3.78;1.58;;;;;;;;;;4936167;29;20048;-64
2022/04/07 00:45:12;;;;;;;3.25;0.90;;;;;;;;;;4936387;29;20051;-64
2022/04/07 00:47:38;;;;;;;5.80;1.20;;;;;;;;;;4935601;29;20067;-63
2022/04/07 00:50:04;;;;;;;2.03;1.20;;;;;;;;;;4935861;29;20450;-63
2022/04/07 00:52:31;;;;;;;7.35;2.45;;;;;;;;;;4935911;29;20080;-64
2022/04/07 00:54:57;;;;;;;8.73;3.22;;;;;;;;;;4935393;29;20043;-63
2022/04/07 00:57:24;;;;;;;6.65;3.65;;;;;;;;;;4935618;29;20086;-63
2022/04/07 00:59:50;;;;;;;7.95;4.00;;;;;;;;;;4935641;29;20051;-63
2022/04/07 01:02:16;;;;;;;11.63;4.80;;;;;;;;;;4935312;29;20095;-63
2022/04/07 01:04:42;;;;;;;12.43;5.60;;;;;;;;;;4935760;29;20083;-63
2022/04/07 01:07:08;;;;;;;20.00;7.45;;;;;;;;;;4935835;29;20056;-63
2022/04/07 01:09:35;;;;;;;19.20;7.55;;;;;;;;;;4935079;29;20040;-63
2022/04/07 01:12:01;;;;;;;16.45;7.70;;;;;;;;;;4935773;29;20415;-63
2022/04/07 01:14:27;;;;;;;15.15;7.93;;;;;;;;;;4935484;29;20044;-63
2022/04/07 01:16:53;;;;;;;15.45;7.90;;;;;;;;;;4934654;29;20040;-64
2022/04/07 01:19:19;;;;;;;17.25;8.88;;;;;;;;;;4935369;29;20039;-64
2022/04/07 01:21:45;;;;;;;18.67;9.82;;;;;;;;;;4935446;29;20040;-64
2022/04/07 01:24:13;;;;;;;18.30;10.00;;;;;;;;;;4934725;29;20052;-64
2022/04/07 01:26:43;;;;;;;15.73;9.82;;;;;;;;;;4923640;29;20044;-63
2022/04/07 01:29:11;;;;;;;21.17;9.85;;;;;;;;;;4916651;29;20551;-63
2022/04/07 01:31:37;;;;;;;16.67;9.32;;;;;;;;;;4915533;29;20184;-63
2022/04/07 01:34:05;;;;;;;26.42;10.07;;;;;;;;;;4916184;29;20044;-63
2022/04/07 01:36:34;;;;;;;17.90;8.25;;;;;;;;;;4916217;29;20059;-63
2022/04/07 01:39:01;;;;;;;19.67;9.25;;;;;;;;;;4915685;29;20134;-63
2022/04/07 01:41:27;;;;;;;16.83;8.32;;;;;;;;;;4914129;29;20411;-63
2022/04/07 01:43:55;;;;;;;12.95;7.15;;;;;;;;;;4916006;29;20107;-64
2022/04/07 01:46:22;;;;;;;13.68;7.05;;;;;;;;;;4915628;29;20527;-64
2022/04/07 01:48:48;;;;;;;10.68;6.05;;;;;;;;;;4916001;29;20813;-64
2022/04/07 01:51:15;;;;;;;16.05;7.30;;;;;;;;;;4915849;29;20040;-64
2022/04/07 01:53:41;;;;;;;15.98;6.22;;;;;;;;;;4915281;29;20401;-64
2022/04/07 01:56:08;;;;;;;14.68;5.72;;;;;;;;;;4916016;29;20040;-64
2022/04/07 01:58:35;;;;;;;18.90;5.30;;;;;;;;;;4914656;29;20414;-64
2022/04/07 02:01:01;;;;;;;13.15;5.55;;;;;;;;;;4914770;29;20174;-64
2022/04/07 02:03:27;;;;;;;11.73;4.40;;;;;;;;;;4914584;29;20044;-64
2022/04/07 02:05:53;;;;;;;12.15;5.60;;;;;;;;;;4915854;29;20581;-63
2022/04/07 02:08:19;;;;;;;12.02;4.18;;;;;;;;;;4915064;29;20044;-64
2022/04/07 02:10:45;;;;;;;9.65;3.70;;;;;;;;;;4915796;29;20075;-64
2022/04/07 02:13:13;;;;;;;9.68;3.72;;;;;;;;;;4915888;29;20087;-64
2022/04/07 02:15:39;;;;;;;16.83;3.92;;;;;;;;;;4915257;29;20052;-64
2022/04/07 02:18:05;;;;;;;10.23;4.72;;;;;;;;;;4915648;29;20403;-64
2022/04/07 02:20:31;;;;;;;10.07;4.60;;;;;;;;;;4915585;29;20051;-64
2022/04/07 02:22:59;;;;;;;12.48;4.30;;;;;;;;;;4914843;29;20522;-64
2022/04/07 02:25:27;;;;;;;12.15;4.50;;;;;;;;;;4917439;29;20111;-64
2022/04/07 02:27:54;;;;;;;13.93;4.60;;;;;;;;;;4934429;29;20043;-64
2022/04/07 02:30:20;;;;;;;12.30;4.10;;;;;;;;;;4933797;29;20086;-64
2022/04/07 02:32:48;;;;;;;17.15;5.22;;;;;;;;;;4934569;29;20051;-64
2022/04/07 02:35:14;;;;;;;12.27;3.83;;;;;;;;;;4933142;29;20056;-64
2022/04/07 02:37:40;;;;;;;15.35;4.13;;;;;;;;;;4933757;29;20036;-64
2022/04/07 02:40:06;;;;;;;15.10;4.97;;;;;;;;;;4934024;29;20087;-64
2022/04/07 02:42:32;;;;;;;16.70;4.88;;;;;;;;;;4934111;29;20039;-64
2022/04/07 02:44:58;;;;;;;16.58;4.53;;;;;;;;;;4934196;29;20039;-64
2022/04/07 02:47:41;;;;;;;17.77;4.70;;;;;;;;;;4933848;29;20705;-64
2022/04/07 02:50:07;;;;;;;15.27;4.40;;;;;;;;;;4934342;29;20078;-64
2022/04/07 02:52:33;;;;;;;13.88;4.10;;;;;;;;;;4935910;29;20459;-64
2022/04/07 02:54:59;;;;;;;13.07;3.80;;;;;;;;;;4938215;29;20059;-64
2022/04/07 02:57:30;;;;;;;22.77;4.90;;;;;;;;;;4937943;29;20040;-64
2022/04/07 02:59:57;;;;;;;19.75;4.93;;;;;;;;;;4936979;29;20055;-64
2022/04/07 03:02:23;;;;;;;15.23;4.50;;;;;;;;;;4938134;29;20131;-64
2022/04/07 03:04:49;;;;;;;18.13;4.63;;;;;;;;;;4937912;29;20071;-64
2022/04/07 03:07:15;;;;;;;14.30;4.38;;;;;;;;;;4937388;29;20043;-64
2022/04/07 03:09:41;;;;;;;19.98;4.50;;;;;;;;;;4937356;29;20086;-64
2022/04/07 03:12:07;;;;;;;17.60;4.50;;;;;;;;;;4936265;29;20036;-64
2022/04/07 03:14:33;;;;;;;19.70;4.50;;;;;;;;;;4967270;28;20039;-64
2022/04/07 03:16:59;;;;;;;15.73;4.75;;;;;;;;;;4935609;29;20062;-64
2022/04/07 03:19:25;;;;;;;13.40;4.32;;;;;;;;;;4936302;29;20122;-63
2022/04/07 03:21:51;;;;;;;10.45;3.60;;;;;;;;;;4936022;29;20043;-63
2022/04/07 03:24:17;;;;;;;8.95;3.60;;;;;;;;;;4935623;29;20047;-63
2022/04/07 03:26:44;;;;;;;13.07;2.83;;;;;;;;;;4923542;29;20403;-64
2022/04/07 03:29:10;;;;;;;13.90;3.15;;;;;;;;;;4917341;29;20551;-64
2022/04/07 03:31:36;;;;;;;11.00;3.08;;;;;;;;;;4916892;29;20115;-64
2022/04/07 03:34:02;;;;;;;13.45;3.30;;;;;;;;;;4917268;29;20055;-64
2022/04/07 03:36:28;;;;;;;12.15;3.35;;;;;;;;;;4917148;29;20556;-64
2022/04/07 03:38:54;;;;;;;15.23;3.38;;;;;;;;;;4915173;29;20055;-64
2022/04/07 03:41:20;;;;;;;10.25;3.30;;;;;;;;;;4916926;29;20411;-64
2022/04/07 03:43:46;;;;;;;9.18;2.25;;;;;;;;;;4899785;29;20077;-64
2022/04/07 03:46:16;;;;;;;12.57;3.13;;;;;;;;;;4916147;29;20079;-64
2022/04/07 03:48:42;;;;;;;8.80;2.75;;;;;;;;;;4916867;29;20062;-64
2022/04/07 03:51:08;;;;;;;11.13;3.20;;;;;;;;;;4916773;29;20127;-64
2022/04/07 03:53:33;;;;;;;15.60;3.50;;;;;;;;;;4916413;29;20546;-64
2022/04/07 03:55:59;;;;;;;11.95;3.08;;;;;;;;;;4916691;29;20119;-64
2022/04/07 03:58:29;;;;;;;16.13;3.47;;;;;;;;;;4916373;29;20044;-64
2022/04/07 04:00:55;;;;;;;14.65;3.55;;;;;;;;;;4915609;29;20064;-64
2022/04/07 04:03:21;;;;;;;16.67;3.75;;;;;;;;;;4915837;29;20111;-64
2022/04/07 04:05:47;;;;;;;16.55;4.07;;;;;;;;;;4916539;29;20055;-64
2022/04/07 04:08:13;;;;;;;17.40;4.22;;;;;;;;;;4915905;29;20040;-64
2022/04/07 04:10:39;;;;;;;17.83;4.35;;;;;;;;;;4916448;29;20063;-64
2022/04/07 04:13:05;;;;;;;20.35;4.05;;;;;;;;;;4916492;29;20052;-64
2022/04/07 04:15:31;;;;;;;15.27;4.05;;;;;;;;;;4915836;29;20491;-64
2022/04/07 04:17:57;;;;;;;20.65;4.88;;;;;;;;;;4916388;29;20040;-64
2022/04/07 04:20:23;;;;;;;20.30;4.50;;;;;;;;;;4916393;29;20513;-64
2022/04/07 04:22:50;;;;;;;20.85;5.03;;;;;;;;;;4915779;29;20482;-64
2022/04/07 04:25:16;;;;;;;20.48;5.55;;;;;;;;;;4917394;29;20055;-64
2022/04/07 04:27:43;;;;;;;23.08;5.10;;;;;;;;;;4935157;29;20052;-64
2022/04/07 04:30:09;;;;;;;25.42;4.88;;;;;;;;;;4934571;29;20054;-64
2022/04/07 04:32:35;;;;;;;24.73;5.78;;;;;;;;;;4935270;29;20529;-64
2022/04/07 04:35:01;;;;;;;22.65;5.15;;;;;;;;;;4935163;29;20046;-64
2022/04/07 04:37:27;;;;;;;28.05;5.65;;;;;;;;;;4934358;29;20039;-64
2022/04/07 04:39:54;;;;;;;25.08;4.80;;;;;;;;;;4935095;29;20078;-64
2022/04/07 04:42:20;;;;;;;19.83;4.72;;;;;;;;;;4934794;29;20051;-64
2022/04/07 04:44:46;;;;;;;29.55;5.30;;;;;;;;;;4934197;29;20434;-64
2022/04/07 04:47:12;;;;;;;22.38;4.97;;;;;;;;;;4934807;29;20042;-64
2022/04/07 04:49:41;;;;;;;21.73;4.85;;;;;;;;;;4935262;29;20044;-64
2022/04/07 04:52:11;;;;;;;17.83;4.28;;;;;;;;;;4933850;29;20077;-64
2022/04/07 04:54:37;;;;;;;22.67;4.30;;;;;;;;;;4934982;29;20122;-64
2022/04/07 04:57:03;;;;;;;25.52;4.78;;;;;;;;;;4934358;29;20039;-64
2022/04/07 04:59:29;;;;;;;26.77;4.30;;;;;;;;;;4933796;29;20047;-63
2022/04/07 05:01:55;;;;;;;23.40;4.72;;;;;;;;;;4934375;29;20557;-63
2022/04/07 05:04:21;;;;;;;27.98;5.20;;;;;;;;;;4934094;29;20059;-63
2022/04/07 05:06:48;;;;;;;27.40;5.30;;;;;;;;;;4933740;29;20099;-63
2022/04/07 05:09:13;;;;;;;25.80;4.90;;;;;;;;;;4934511;29;20043;-63
2022/04/07 05:11:39;;;;;;;32.03;5.47;;;;;;;;;;4934235;29;20048;-63
2022/04/07 05:14:05;;;;;;;30.38;5.40;;;;;;;;;;4933492;29;20051;-63
2022/04/07 05:16:31;;;;;;;25.35;5.85;;;;;;;;;;4947713;28;20095;-63
2022/04/07 05:18:57;;;;;;;19.52;5.78;;;;;;;;;;4934149;29;20056;-63
2022/04/07 05:21:23;;;;;;;28.98;6.13;;;;;;;;;;4933214;29;20050;-63
2022/04/07 05:23:49;;;;;;;23.15;6.00;;;;;;;;;;4933679;29;20055;-63
2022/04/07 05:26:15;;;;;;;22.33;6.53;;;;;;;;;;4925583;29;20040;-63
2022/04/07 05:28:42;;;;;;;24.90;6.40;;;;;;;;;;4914264;29;20052;-63
2022/04/07 05:31:08;;;;;;;21.25;6.70;;;;;;;;;;4915115;29;20047;-63
2022/04/07 05:33:34;;;;;;;24.83;6.97;;;;;;;;;;4915102;29;20043;-63
2022/04/07 05:36:00;;;;;;;14.68;6.40;;;;;;;;;;4914389;29;20047;-63
2022/04/07 05:38:26;;;;;;;20.63;6.03;;;;;;;;;;4914830;29;20107;-63
2022/04/07 05:40:52;;;;;;;12.52;5.57;;;;;;;;;;4914761;29;20088;-63
2022/04/07 05:43:18;;;;;;;16.50;6.10;;;;;;;;;;4913711;29;20091;-63
2022/04/07 05:45:49;;;;;;;18.83;5.78;;;;;;;;;;4914426;29;20040;-64
2022/04/07 05:48:15;;;;;;;14.30;5.45;;;;;;;;;;4913999;29;20051;-63
2022/04/07 05:50:41;;;;;;;17.50;6.53;;;;;;;;;;4914270;29;20543;-63
2022/04/07 05:53:07;;;;;;;8.15;2.03;;;;;;;;;;4914831;29;20075;-63
2022/04/07 05:55:34;;;;;;;3.22;0.88;;;;;;;;;;4914269;29;20048;-63
2022/04/07 05:58:03;;;;;;;1.00;0.50;;;;;;;;;;4914250;29;20043;-63
2022/04/07 06:00:29;;;;;;;0.50;0.30;;;;;;;;;;4914298;29;20521;-63
2022/04/07 06:02:55;;;;;;;1.17;0.40;;;;;;;;;;4914671;29;20050;-63
2022/04/07 06:05:21;;;;;;;2.58;0.50;;;;;;;;;;4913539;29;20048;-63
2022/04/07 06:07:47;;;;;;;3.55;0.52;;;;;;;;;;4914320;29;20040;-63
2022/04/07 06:10:14;;;;;;;4.50;0.75;;;;;;;;;;4914613;29;20040;-63
2022/04/07 06:12:42;;;;;;;3.70;0.70;;;;;;;;;;4912631;29;20047;-63
2022/04/07 06:15:12;;;;;;;8.60;1.02;;;;;;;;;;4914153;29;20080;-63
2022/04/07 06:17:40;;;;;;;6.15;1.67;;;;;;;;;;4914388;29;20095;-63
2022/04/07 06:20:06;;;;;;;4.57;1.83;;;;;;;;;;4913782;29;20058;-63
2022/04/07 06:22:32;;;;;;;4.03;0.93;;;;;;;;;;4914388;29;20056;-63
2022/04/07 06:24:58;;;;;;;5.30;1.20;;;;;;;;;;4914237;29;20161;-63
2022/04/07 06:27:32;;;;;;;5.15;0.93;;;;;;;;;;4930387;29;20371;-63
2022/04/07 06:29:58;;;;;;;8.45;1.10;;;;;;;;;;4929466;29;20475;-63
2022/04/07 06:32:24;;;;;;;5.05;1.60;;;;;;;;;;4943869;29;20046;-65
2022/04/07 06:34:50;;;;;;;3.67;1.00;;;;;;;;;;4941538;29;20050;-63
2022/04/07 06:37:16;;;;;;;5.38;1.20;;;;;;;;;;4944669;29;20184;-62
2022/04/07 06:39:42;;;;;;;6.25;1.00;;;;;;;;;;4947913;29;20043;-65
2022/04/07 06:42:08;;;;;;;6.20;0.80;;;;;;;;;;4950495;28;20051;-63
2022/04/07 06:44:34;;;;;;;3.45;0.93;;;;;;;;;;4951029;29;20040;-63
2022/04/07 06:47:00;;;;;;;3.83;0.80;;;;;;;;;;4936637;29;20039;-63
2022/04/07 06:49:26;;;;;;;4.97;0.80;;;;;;;;;;4941145;29;20123;-63
2022/04/07 06:51:52;;;;;;;7.57;1.17;;;;;;;;;;4947611;29;20126;-63
2022/04/07 06:54:18;;;;;;;2.63;0.73;;;;;;;;;;4937484;29;20051;-64
2022/04/07 06:56:44;;;;;;;2.75;0.80;;;;;;;;;;4951466;29;20054;-64
2022/04/07 06:59:10;;;;;;;5.38;0.60;;;;;;;;;;4952166;29;20047;-64
2022/04/07 07:01:36;;;;;;;3.78;1.15;;;;;;;;;;4951523;29;20055;-63
2022/04/07 07:04:02;;;;;;;3.08;0.77;;;;;;;;;;4946020;29;20051;-63
2022/04/07 07:06:29;;;;;;;2.28;0.60;;;;;;;;;;4951494;29;20467;-64
2022/04/07 07:08:55;;;;;;;2.95;0.70;;;;;;;;;;4952767;29;20069;-64
2022/04/07 07:11:21;;;;;;;4.50;0.63;;;;;;;;;;4945680;29;20156;-64
2022/04/07 07:13:47;;;;;;;1.92;0.73;;;;;;;;;;4915284;29;20067;-65
2022/04/07 07:16:13;;;;;;;1.85;0.50;;;;;;;;;;4947525;29;20615;-67
2022/04/07 07:18:42;;;;;;;5.22;0.77;;;;;;;;;;4948263;29;20043;-65
2022/04/07 07:21:08;;;;;;;6.07;0.70;;;;;;;;;;4938931;29;20107;-64
2022/04/07 07:23:34;;;;;;;5.75;1.10;;;;;;;;;;4940559;29;20134;-65
2022/04/07 07:26:00;;;;;;;4.65;1.02;;;;;;;;;;4940246;29;20509;-63
2022/04/07 07:28:26;;;;;;;3.42;0.80;;;;;;;;;;4951833;29;20383;-65
2022/04/07 07:30:52;;;;;;;5.22;0.80;;;;;;;;;;4941630;29;20070;-65
2022/04/07 07:33:18;;;;;;;4.95;1.00;;;;;;;;;;4948728;29;20075;-64
2022/04/07 07:35:45;;;;;;;4.70;0.73;;;;;;;;;;4940574;29;20043;-65
2022/04/07 07:38:12;;;;;;;3.47;0.77;;;;;;;;;;4951560;28;20051;-65
2022/04/07 07:40:38;;;;;;;5.07;1.20;;;;;;;;;;4955794;29;20064;-68
2022/04/07 07:43:05;;;;;;;2.25;0.60;;;;;;;;;;4946262;28;20076;-66
2022/04/07 07:45:34;;;;;;;3.65;0.90;;;;;;;;;;4917077;29;20099;-66
2022/04/07 07:48:00;;;;;;;4.05;1.00;;;;;;;;;;4949615;29;20039;-66
2022/04/07 07:50:26;;;;;;;5.95;0.75;;;;;;;;;;4954664;29;20036;-66
2022/04/07 07:52:52;;;;;;;2.40;0.70;;;;;;;;;;4954634;29;20110;-65
2022/04/07 07:55:19;;;;;;;4.43;0.80;;;;;;;;;;4955172;29;20476;-67
2022/04/07 07:57:45;;;;;;;1.90;0.80;;;;;;;;;;4948157;29;20434;-67
2022/04/07 08:00:14;;;;;;;1.67;0.85;;;;;;;;;;4948502;29;20498;-68
2022/04/07 08:02:40;;;;;;;4.15;0.80;;;;;;;;;;4954368;28;20035;-68
2022/04/07 08:05:07;;;;;;;9.57;1.00;;;;;;;;;;4952830;29;20042;-66
2022/04/07 08:07:33;;;;;;;4.15;0.80;;;;;;;;;;4954180;29;20057;-69
2022/04/07 08:10:01;;;;;;;9.30;1.67;;;;;;;;;;4953966;29;20044;-69
2022/04/07 08:12:27;;;;;;;3.05;0.80;;;;;;;;;;4950553;28;20047;-68
2022/04/07 08:14:53;;;;;;;4.70;1.10;;;;;;;;;;4941853;29;20195;-69
2022/04/07 08:17:20;;;;;;;4.05;1.17;;;;;;;;;;4955046;29;20082;-68
2022/04/07 08:19:47;;;;;;;3.25;1.00;;;;;;;;;;4954400;29;20050;-68
2022/04/07 08:22:13;;;;;;;4.03;1.38;;;;;;;;;;4947170;29;20095;-69
2022/04/07 08:24:39;;;;;;;3.80;1.00;;;;;;;;;;4954970;29;20517;-68
2022/04/07 08:27:06;;;;;;;5.30;0.90;;;;;;;;;;4946078;29;20043;-68
2022/04/07 08:29:32;;;;;;;4.38;0.82;;;;;;;;;;4951900;29;20142;-67
2022/04/07 08:31:58;;;;;;;4.13;0.88;;;;;;;;;;4954345;29;20050;-67
2022/04/07 08:34:25;;;;;;;6.18;0.88;;;;;;;;;;4953618;29;20043;-67
2022/04/07 08:36:51;;;;;;;3.50;0.90;;;;;;;;;;4953626;28;20066;-67
2022/04/07 08:39:18;;;;;;;4.13;1.17;;;;;;;;;;4954490;29;20039;-67
2022/04/07 08:41:45;;;;;;;5.22;1.00;;;;;;;;;;4954570;29;20090;-67
2022/04/07 08:44:12;;;;;;;6.38;1.10;;;;;;;;;;4954023;28;20557;-65
2022/04/07 08:46:39;;;;;;;4.07;0.70;;;;;;;;;;4954256;29;20071;-66
2022/04/07 08:49:07;;;;;;;4.80;1.20;;;;;;;;;;4952778;29;20039;-66
2022/04/07 08:51:33;;;;;;;5.47;1.30;;;;;;;;;;4940913;29;20059;-67
2022/04/07 08:53:59;;;;;;;3.28;1.00;;;;;;;;;;4934864;29;20055;-68
2022/04/07 08:56:26;;;;;;;2.83;1.30;;;;;;;;;;4944644;29;20143;-68
2022/04/07 08:58:53;;;;;;;6.05;1.33;;;;;;;;;;4950663;28;20078;-68
2022/04/07 09:01:20;;;;;;;5.82;1.23;;;;;;;;;;4942317;28;20142;-68
2022/04/07 09:03:46;;;;;;;8.77;1.08;;;;;;;;;;4946819;29;20051;-68
2022/04/07 09:06:15;;;;;;;8.10;1.65;;;;;;;;;;4953729;29;20043;-68
2022/04/07 09:08:41;;;;;;;4.70;1.13;;;;;;;;;;4953630;28;20043;-67
2022/04/07 09:11:09;;;;;;;5.97;1.23;;;;;;;;;;4952938;29;20039;-68
2022/04/07 09:13:36;;;;;;;3.33;1.05;;;;;;;;;;4953525;29;20043;-68
2022/04/07 09:16:03;;;;;;;5.10;1.23;;;;;;;;;;4953347;29;20652;-63
2022/04/07 09:18:33;;;;;;;5.03;1.10;;;;;;;;;;4951474;29;20085;-66
2022/04/07 09:20:59;;;;;;;5.97;1.20;;;;;;;;;;4952911;29;20050;-65
2022/04/07 09:23:25;;;;;;;8.75;1.50;;;;;;;;;;4952855;29;20044;-64
2022/04/07 09:25:51;;;;;;;7.20;1.10;;;;;;;;;;4943430;29;20043;-66
2022/04/07 09:28:27;;;;;;;5.90;1.08;;;;;;;;;;4967886;28;20039;-66
2022/04/07 09:30:53;;;;;;;5.25;1.42;;;;;;;;;;4948379;29;20055;-67
2022/04/07 09:33:23;;;;;;;6.28;1.45;;;;;;;;;;4952165;29;20138;-67
2022/04/07 09:36:08;;;;;;;5.53;1.45;;;;;;;;;;4950834;28;20054;-63
2022/04/07 09:38:35;;;;;;;11.60;1.45;;;;;;;;;;4949723;28;20047;-64
2022/04/07 09:41:05;;;;;;;7.75;1.23;;;;;;;;;;4950894;29;20079;-65
2022/04/07 09:43:42;;;;;;;14.45;2.13;;;;;;;;;;4935581;29;20577;-65
2022/04/07 09:46:09;;;;;;;10.57;1.70;;;;;;;;;;4952625;28;20654;-66
2022/04/07 09:48:36;;;;;;;6.18;1.60;;;;;;;;;;4951985;28;20049;-64
2022/04/07 09:51:04;;;;;;;7.53;1.63;;;;;;;;;;4951894;28;20047;-63
2022/04/07 09:53:36;;;;;;;6.53;1.63;;;;;;;;;;4942494;29;20043;-66
2022/04/07 09:56:02;;;;;;;5.50;1.60;;;;;;;;;;4952333;28;20063;-65
2022/04/07 09:58:29;;;;;;;9.20;1.95;;;;;;;;;;4943253;29;20491;-63
2022/04/07 10:00:56;;;;;;;7.82;1.60;;;;;;;;;;4948030;28;20070;-64
2022/04/07 10:03:23;;;;;;;8.15;1.60;;;;;;;;;;4950343;28;20043;-65
2022/04/07 10:05:50;;;;;;;8.73;1.52;;;;;;;;;;4940790;29;20592;-65
2022/04/07 10:08:16;;;;;;;9.00;1.70;;;;;;;;;;4933349;29;20179;-65
2022/04/07 10:10:43;;;;;;;15.02;2.03;;;;;;;;;;4950810;29;20039;-65
2022/04/07 10:13:10;;;;;;;8.77;1.90;;;;;;;;;;4953170;28;20050;-66
2022/04/07 10:15:37;;;;;;;9.38;1.50;;;;;;;;;;4947563;28;20048;-67
2022/04/07 10:18:05;;;;;;;10.10;2.00;;;;;;;;;;4949262;29;20050;-65
2022/04/07 10:20:33;;;;;;;6.88;2.08;;;;;;;;;;4952889;29;20055;-64
2022/04/07 10:23:18;;;;;;;13.52;2.10;;;;;;;;;;4952995;29;20047;-65
2022/04/07 10:25:45;;;;;;;13.98;2.22;;;;;;;;;;4946373;29;20043;-66
2022/04/07 10:28:12;;;;;;;15.05;2.40;;;;;;;;;;4947021;29;20426;-66
2022/04/07 10:30:48;;;;;;;10.48;1.60;;;;;;;;;;4951270;29;20039;-66
2022/04/07 10:33:33;;;;;;;12.95;2.28;;;;;;;;;;4918337;29;20149;-66
2022/04/07 10:36:00;;;;;;;14.05;2.22;;;;;;;;;;4944134;29;20106;-66
2022/04/07 10:38:39;;;;;;;13.88;2.65;;;;;;;;;;4946991;28;20479;-66
2022/04/07 10:41:05;;;;;;;9.93;1.63;;;;;;;;;;4950630;29;20106;-66
2022/04/07 10:43:31;;;;;;;15.40;1.80;;;;;;;;;;4950871;28;20058;-66
2022/04/07 10:46:06;;;;;;;12.68;2.15;;;;;;;;;;4951311;29;20047;-67
2022/04/07 10:48:45;;;;;;;15.70;2.22;;;;;;;;;;4950487;29;20410;-65
2022/04/07 10:51:11;;;;;;;11.50;2.10;;;;;;;;;;4950677;29;20402;-66
2022/04/07 10:53:38;;;;;;;12.82;2.20;;;;;;;;;;4952166;28;20047;-67
2022/04/07 10:56:08;;;;;;;13.82;2.30;;;;;;;;;;4951281;29;20047;-66
2022/04/07 10:58:45;;;;;;;10.70;2.10;;;;;;;;;;4950954;29;20102;-68
2022/04/07 11:01:27;;;;;;;8.15;1.80;;;;;;;;;;4921405;29;20114;-68
2022/04/07 11:04:12;;;;;;;11.38;2.10;;;;;;;;;;4950859;29;20078;-69
2022/04/07 11:06:38;;;;;;;12.88;2.03;;;;;;;;;;4951197;29;20040;-68
2022/04/07 11:09:14;;;;;;;13.40;2.85;;;;;;;;;;4934685;29;20047;-67
2022/04/07 11:11:52;;;;;;;12.13;2.03;;;;;;;;;;4952428;28;20044;-70
2022/04/07 11:14:26;;;;;;;16.27;1.75;;;;;;;;;;4941446;29;20051;-69
2022/04/07 11:16:53;;;;;;;11.52;2.08;;;;;;;;;;4937821;29;20047;-69
2022/04/07 11:19:31;;;;;;;10.65;2.17;;;;;;;;;;4956476;29;20051;-67
2022/04/07 11:22:07;;;;;;;15.02;2.40;;;;;;;;;;4951096;29;20093;-68
2022/04/07 11:24:39;;;;;;;14.38;2.28;;;;;;;;;;4953947;29;20055;-68
2022/04/07 11:27:45;;;;;;;16.60;3.10;;;;;;;;;;4942730;28;20039;-68
2022/04/07 11:30:12;;;;;;;16.73;3.15;;;;;;;;;;4915379;29;20052;-70
2022/04/07 11:32:41;;;;;;;10.98;2.83;;;;;;;;;;4947135;28;20039;-68
2022/04/07 11:35:17;;;;;;;15.40;2.53;;;;;;;;;;4954296;29;20130;-68
2022/04/07 11:37:44;;;;;;;14.57;2.90;;;;;;;;;;4955532;28;20068;-70
2022/04/07 11:40:11;;;;;;;12.77;2.63;;;;;;;;;;4955567;29;20098;-68
2022/04/07 11:42:37;;;;;;;15.10;2.08;;;;;;;;;;4954480;28;20087;-68
2022/04/07 11:45:04;;;;;;;15.50;2.95;;;;;;;;;;4955285;29;20123;-69
2022/04/07 11:47:36;;;;;;;16.00;2.90;;;;;;;;;;4953116;29;20071;-69
2022/04/07 11:50:03;;;;;;;14.07;2.65;;;;;;;;;;4955279;28;20051;-71
2022/04/07 11:52:31;;;;;;;15.15;2.58;;;;;;;;;;4952488;29;20039;-71
2022/04/07 11:54:58;;;;;;;11.27;2.40;;;;;;;;;;4952837;29;20055;-69
2022/04/07 11:57:24;;;;;;;11.63;2.30;;;;;;;;;;4950299;29;20490;-69
2022/04/07 11:59:52;;;;;;;12.95;2.30;;;;;;;;;;4945004;29;20055;-74
2022/04/07 12:02:22;;;;;;;14.68;2.75;;;;;;;;;;4936906;29;20413;-73
2022/04/07 12:04:54;;;;;;;14.32;2.83;;;;;;;;;;4953510;29;20047;-71
2022/04/07 12:07:21;;;;;;;12.20;2.10;;;;;;;;;;4954396;29;20039;-71
2022/04/07 12:09:47;;;;;;;17.88;2.65;;;;;;;;;;4947039;29;20048;-71
2022/04/07 12:12:13;;;;;;;11.23;2.25;;;;;;;;;;4937870;29;20051;-71
2022/04/07 12:14:42;;;;;;;16.60;2.88;;;;;;;;;;4953306;29;20465;-72
2022/04/07 12:17:12;;;;;;;13.93;2.30;;;;;;;;;;4953006;29;20082;-72
2022/04/07 12:19:47;;;;;;;13.77;2.33;;;;;;;;;;4926587;29;20082;-73
2022/04/07 12:22:14;;;;;;;11.68;2.13;;;;;;;;;;4947241;29;20134;-70
2022/04/07 12:24:57;;;;;;;15.63;2.53;;;;;;;;;;4953393;28;20047;-69
2022/04/07 12:27:28;;;;;;;6.55;1.70;;;;;;;;;;4945846;29;20084;-68
2022/04/07 12:29:54;;;;;;;13.52;1.92;;;;;;;;;;4953499;29;20043;-71
2022/04/07 12:32:20;;;;;;;12.38;2.47;;;;;;;;;;4952749;29;20043;-69
2022/04/07 12:34:49;;;;;;;12.57;2.17;;;;;;;;;;4954775;28;20051;-69
2022/04/07 12:37:38;;;;;;;8.05;2.17;;;;;;;;;;4951960;29;20094;-73
2022/04/07 12:40:26;;;;;;;11.60;2.28;;;;;;;;;;4952982;29;20403;-71
2022/04/07 12:42:54;;;;;;;8.50;2.00;;;;;;;;;;4948043;28;20059;-70
2022/04/07 12:45:23;;;;;;;8.80;1.90;;;;;;;;;;4952350;29;20087;-67
2022/04/07 12:48:04;;;;;;;14.80;2.28;;;;;;;;;;4953165;29;20039;-68
2022/04/07 12:50:32;;;;;;;10.55;2.22;;;;;;;;;;4940248;29;20074;-69
2022/04/07 12:52:58;;;;;;;10.18;2.00;;;;;;;;;;4951929;29;20078;-68
2022/04/07 12:55:32;;;;;;;12.82;2.35;;;;;;;;;;4954340;29;20031;-68
2022/04/07 12:57:58;;;;;;;11.40;1.80;;;;;;;;;;4952964;29;20043;-66
2022/04/07 13:00:24;;;;;;;10.15;1.83;;;;;;;;;;4953009;29;20059;-67
2022/04/07 13:02:54;;;;;;;13.88;1.85;;;;;;;;;;4954374;28;20047;-69
2022/04/07 13:05:21;;;;;;;7.43;1.30;;;;;;;;;;4952880;29;20378;-69
2022/04/07 13:07:47;;;;;;;3.55;0.80;;;;;;;;;;4949912;29;20130;-68
2022/04/07 13:10:14;;;;;;;3.50;0.90;;;;;;;;;;4952731;29;20045;-71
2022/04/07 13:12:40;;;;;;;5.05;1.23;;;;;;;;;;4952013;29;20031;-68
2022/04/07 13:15:07;;;;;;;8.23;1.35;;;;;;;;;;4952152;29;20043;-66
2022/04/07 13:17:33;;;;;;;8.50;1.58;;;;;;;;;;4951711;29;20075;-67
2022/04/07 13:19:59;;;;;;;7.47;1.33;;;;;;;;;;4954326;29;20094;-66
2022/04/07 13:22:26;;;;;;;11.25;1.83;;;;;;;;;;4953021;29;20039;-67
2022/04/07 13:24:52;;;;;;;9.57;1.42;;;;;;;;;;4953142;28;20087;-67
2022/04/07 13:27:18;;;;;;;10.30;1.98;;;;;;;;;;4935039;29;20046;-67
2022/04/07 13:29:45;;;;;;;6.88;1.77;;;;;;;;;;4947490;29;20405;-68
2022/04/07 13:32:11;;;;;;;7.05;1.67;;;;;;;;;;4951998;29;20050;-68
2022/04/07 13:34:37;;;;;;;11.10;2.13;;;;;;;;;;4952234;29;20043;-68
2022/04/07 13:37:07;;;;;;;8.80;1.75;;;;;;;;;;4949979;28;20497;-68
2022/04/07 13:39:33;;;;;;;7.38;1.80;;;;;;;;;;4952228;29;20453;-66
2022/04/07 13:41:59;;;;;;;7.70;1.52;;;;;;;;;;4953415;28;20043;-70
2022/04/07 13:44:25;;;;;;;8.30;1.67;;;;;;;;;;4951260;29;20537;-65
2022/04/07 13:46:51;;;;;;;5.15;1.00;;;;;;;;;;4953366;29;20045;-69
2022/04/07 13:49:18;;;;;;;6.57;1.65;;;;;;;;;;4952795;29;20183;-73
2022/04/07 13:51:45;;;;;;;7.95;1.70;;;;;;;;;;4936279;29;20044;-68
2022/04/07 13:54:11;;;;;;;10.95;2.05;;;;;;;;;;4952116;29;20047;-68
2022/04/07 13:56:37;;;;;;;9.10;1.73;;;;;;;;;;4951626;29;20043;-65
2022/04/07 13:59:04;;;;;;;8.48;1.63;;;;;;;;;;4967627;28;20061;-66
2022/04/07 14:01:30;;;;;;;10.65;1.83;;;;;;;;;;4952828;29;20055;-65
2022/04/07 14:03:56;;;;;;;8.85;1.92;;;;;;;;;;4951651;29;20035;-67
2022/04/07 14:06:22;;;;;;;9.00;1.73;;;;;;;;;;4950461;29;20058;-67
2022/04/07 14:08:49;;;;;;;7.72;1.55;;;;;;;;;;4950759;29;20049;-66
2022/04/07 14:11:20;;;;;;;10.30;1.40;;;;;;;;;;4953015;29;20051;-70
2022/04/07 14:13:46;;;;;;;7.55;2.00;;;;;;;;;;4950450;29;20062;-69
2022/04/07 14:16:12;;;;;;;7.50;1.88;;;;;;;;;;4952062;29;20438;-70
2022/04/07 14:18:38;;;;;;;7.88;2.10;;;;;;;;;;4935601;29;20467;-67
2022/04/07 14:21:05;;;;;;;10.63;1.80;;;;;;;;;;4947998;29;20928;-66
2022/04/07 14:23:31;;;;;;;11.38;1.92;;;;;;;;;;4925203;29;20039;-66
2022/04/07 14:25:57;;;;;;;8.43;2.00;;;;;;;;;;4944692;29;20047;-70
2022/04/07 14:28:24;;;;;;;11.85;1.98;;;;;;;;;;4951152;29;20043;-68
2022/04/07 14:30:50;;;;;;;12.15;1.83;;;;;;;;;;4951994;29;20051;-73
2022/04/07 14:33:17;;;;;;;9.50;1.88;;;;;;;;;;4952371;29;20470;-66
2022/04/07 14:35:43;;;;;;;7.45;1.80;;;;;;;;;;4947439;28;20541;-66
2022/04/07 14:38:11;;;;;;;6.50;1.55;;;;;;;;;;4950016;29;20054;-68